sensor_id;sensor_type;location;lat;lon;timestamp;P1;durP1;ratioP1;P2;durP2;ratioP2
438;SDS011;206;48.782;9.252;2022-08-19T00:01:08;15.87;;;13.00;;
438;SDS011;206;48.782;9.252;2022-08-19T00:03:34;12.87;;;12.17;;
438;SDS011;206;48.782;9.252;2022-08-19T00:05:59;12.80;;;12.13;;
438;SDS011;206;48.782;9.252;2022-08-19T00:08:25;14.53;;;13.77;;
438;SDS011;206;48.782;9.252;2022-08-19T00:10:50;13.87;;;13.17;;
438;SDS011;206;48.782;9.252;2022-08-19T00:13:17;13.70;;;13.00;;
438;SDS011;206;48.782;9.252;2022-08-19T00:15:43;14.00;;;13.30;;
438;SDS011;206;48.782;9.252;2022-08-19T00:18:09;14.17;;;13.47;;
438;SDS011;206;48.782;9.252;2022-08-19T00:20:35;14.33;;;13.63;;
438;SDS011;206;48.782;9.252;2022-08-19T00:23:03;14.27;;;13.57;;
438;SDS011;206;48.782;9.252;2022-08-19T00:25:28;15.67;;;14.80;;
438;SDS011;206;48.782;9.252;2022-08-19T00:27:54;14.30;;;13.60;;
438;SDS011;206;48.782;9.252;2022-08-19T00:30:20;15.67;;;14.87;;
438;SDS011;206;48.782;9.252;2022-08-19T00:32:46;13.90;;;13.20;;
438;SDS011;206;48.782;9.252;2022-08-19T00:35:11;14.67;;;13.93;;
438;SDS011;206;48.782;9.252;2022-08-19T00:37:37;15.00;;;13.03;;
438;SDS011;206;48.782;9.252;2022-08-19T00:40:05;15.47;;;14.23;;
438;SDS011;206;48.782;9.252;2022-08-19T00:42:31;15.27;;;13.20;;
438;SDS011;206;48.782;9.252;2022-08-19T00:44:57;13.70;;;13.00;;
438;SDS011;206;48.782;9.252;2022-08-19T00:47:23;13.20;;;12.50;;
438;SDS011;206;48.782;9.252;2022-08-19T00:49:50;13.93;;;13.23;;
438;SDS011;206;48.782;9.252;2022-08-19T00:52:20;14.53;;;13.80;;
438;SDS011;206;48.782;9.252;2022-08-19T00:54:54;14.17;;;13.20;;
438;SDS011;206;48.782;9.252;2022-08-19T00:57:22;12.73;;;12.03;;
438;SDS011;206;48.782;9.252;2022-08-19T00:59:53;19.80;;;12.73;;
438;SDS011;206;48.782;9.252;2022-08-19T01:02:21;13.93;;;13.27;;
438;SDS011;206;48.782;9.252;2022-08-19T01:04:47;13.10;;;12.40;;
438;SDS011;206;48.782;9.252;2022-08-19T01:07:12;16.30;;;13.30;;
438;SDS011;206;48.782;9.252;2022-08-19T01:09:38;19.27;;;12.93;;
438;SDS011;206;48.782;9.252;2022-08-19T01:12:04;12.97;;;12.30;;
438;SDS011;206;48.782;9.252;2022-08-19T01:14:30;13.67;;;12.97;;
438;SDS011;206;48.782;9.252;2022-08-19T01:16:56;14.83;;;14.03;;
438;SDS011;206;48.782;9.252;2022-08-19T01:24:47;15.90;;;14.87;;
438;SDS011;206;48.782;9.252;2022-08-19T01:27:12;14.13;;;13.13;;
438;SDS011;206;48.782;9.252;2022-08-19T01:29:39;13.47;;;12.77;;
438;SDS011;206;48.782;9.252;2022-08-19T01:32:16;13.73;;;12.40;;
438;SDS011;206;48.782;9.252;2022-08-19T01:34:44;14.50;;;13.77;;
438;SDS011;206;48.782;9.252;2022-08-19T01:37:12;14.53;;;13.87;;
438;SDS011;206;48.782;9.252;2022-08-19T01:39:39;13.10;;;12.40;;
438;SDS011;206;48.782;9.252;2022-08-19T01:42:06;14.17;;;13.47;;
438;SDS011;206;48.782;9.252;2022-08-19T01:44:35;14.87;;;14.07;;
438;SDS011;206;48.782;9.252;2022-08-19T01:47:02;14.33;;;13.63;;
438;SDS011;206;48.782;9.252;2022-08-19T01:49:28;13.87;;;13.17;;
438;SDS011;206;48.782;9.252;2022-08-19T01:51:54;14.77;;;14.03;;
438;SDS011;206;48.782;9.252;2022-08-19T01:54:21;15.37;;;14.57;;
438;SDS011;206;48.782;9.252;2022-08-19T01:56:48;15.20;;;14.40;;
438;SDS011;206;48.782;9.252;2022-08-19T01:59:16;15.10;;;14.30;;
438;SDS011;206;48.782;9.252;2022-08-19T02:01:45;14.77;;;14.00;;
438;SDS011;206;48.782;9.252;2022-08-19T02:04:11;14.17;;;13.47;;
438;SDS011;206;48.782;9.252;2022-08-19T02:06:36;15.83;;;14.80;;
438;SDS011;206;48.782;9.252;2022-08-19T02:09:03;14.60;;;13.90;;
438;SDS011;206;48.782;9.252;2022-08-19T02:11:31;16.43;;;15.63;;
438;SDS011;206;48.782;9.252;2022-08-19T02:13:59;16.00;;;15.20;;
438;SDS011;206;48.782;9.252;2022-08-19T02:16:27;18.90;;;14.23;;
438;SDS011;206;48.782;9.252;2022-08-19T02:18:53;14.73;;;13.97;;
438;SDS011;206;48.782;9.252;2022-08-19T02:21:20;15.17;;;14.30;;
438;SDS011;206;48.782;9.252;2022-08-19T02:23:47;17.47;;;16.57;;
438;SDS011;206;48.782;9.252;2022-08-19T02:26:14;16.63;;;15.67;;
438;SDS011;206;48.782;9.252;2022-08-19T02:28:40;18.43;;;17.53;;
438;SDS011;206;48.782;9.252;2022-08-19T02:31:14;17.37;;;16.47;;
438;SDS011;206;48.782;9.252;2022-08-19T02:33:42;18.10;;;17.20;;
438;SDS011;206;48.782;9.252;2022-08-19T02:36:08;17.30;;;16.40;;
438;SDS011;206;48.782;9.252;2022-08-19T02:38:35;18.00;;;17.10;;
438;SDS011;206;48.782;9.252;2022-08-19T02:41:07;15.57;;;14.77;;
438;SDS011;206;48.782;9.252;2022-08-19T02:43:38;16.33;;;15.53;;
438;SDS011;206;48.782;9.252;2022-08-19T02:46:21;18.23;;;17.33;;
438;SDS011;206;48.782;9.252;2022-08-19T02:48:50;17.00;;;16.17;;
438;SDS011;206;48.782;9.252;2022-08-19T02:51:20;19.90;;;18.90;;
438;SDS011;206;48.782;9.252;2022-08-19T02:53:48;18.10;;;17.20;;
438;SDS011;206;48.782;9.252;2022-08-19T02:56:14;20.07;;;19.07;;
438;SDS011;206;48.782;9.252;2022-08-19T02:58:40;19.03;;;18.03;;
438;SDS011;206;48.782;9.252;2022-08-19T03:01:06;18.93;;;17.53;;
438;SDS011;206;48.782;9.252;2022-08-19T03:03:32;22.50;;;18.43;;
438;SDS011;206;48.782;9.252;2022-08-19T03:06:09;19.80;;;18.80;;
438;SDS011;206;48.782;9.252;2022-08-19T03:08:40;20.30;;;19.30;;
438;SDS011;206;48.782;9.252;2022-08-19T03:11:17;21.60;;;18.80;;
438;SDS011;206;48.782;9.252;2022-08-19T03:13:46;23.07;;;19.23;;
438;SDS011;206;48.782;9.252;2022-08-19T03:16:14;21.37;;;20.27;;
438;SDS011;206;48.782;9.252;2022-08-19T03:18:41;21.63;;;19.97;;
438;SDS011;206;48.782;9.252;2022-08-19T03:21:06;24.83;;;19.37;;
438;SDS011;206;48.782;9.252;2022-08-19T03:23:32;21.03;;;19.37;;
438;SDS011;206;48.782;9.252;2022-08-19T03:25:58;20.60;;;19.60;;
438;SDS011;206;48.782;9.252;2022-08-19T03:28:29;19.93;;;18.93;;
438;SDS011;206;48.782;9.252;2022-08-19T03:30:57;20.10;;;19.10;;
438;SDS011;206;48.782;9.252;2022-08-19T03:33:29;20.33;;;18.47;;
438;SDS011;206;48.782;9.252;2022-08-19T03:36:10;19.57;;;18.57;;
438;SDS011;206;48.782;9.252;2022-08-19T03:38:41;21.20;;;20.10;;
438;SDS011;206;48.782;9.252;2022-08-19T03:41:14;22.33;;;21.27;;
438;SDS011;206;48.782;9.252;2022-08-19T03:43:42;21.93;;;20.83;;
438;SDS011;206;48.782;9.252;2022-08-19T03:46:12;21.93;;;20.83;;
438;SDS011;206;48.782;9.252;2022-08-19T03:48:40;20.70;;;19.70;;
438;SDS011;206;48.782;9.252;2022-08-19T03:51:07;21.20;;;19.70;;
438;SDS011;206;48.782;9.252;2022-08-19T03:53:40;20.57;;;19.57;;
438;SDS011;206;48.782;9.252;2022-08-19T03:56:07;20.77;;;19.77;;
438;SDS011;206;48.782;9.252;2022-08-19T03:58:34;20.33;;;19.33;;
438;SDS011;206;48.782;9.252;2022-08-19T04:01:06;22.33;;;21.23;;
438;SDS011;206;48.782;9.252;2022-08-19T04:03:36;22.93;;;21.83;;
438;SDS011;206;48.782;9.252;2022-08-19T04:06:10;22.23;;;21.13;;
438;SDS011;206;48.782;9.252;2022-08-19T04:08:41;26.23;;;22.00;;
438;SDS011;206;48.782;9.252;2022-08-19T04:11:08;21.77;;;20.63;;
438;SDS011;206;48.782;9.252;2022-08-19T04:13:35;23.03;;;20.90;;
438;SDS011;206;48.782;9.252;2022-08-19T04:16:01;28.17;;;22.60;;
438;SDS011;206;48.782;9.252;2022-08-19T04:18:30;22.87;;;20.63;;
438;SDS011;206;48.782;9.252;2022-08-19T04:20:57;22.30;;;21.20;;
438;SDS011;206;48.782;9.252;2022-08-19T04:23:23;24.13;;;22.63;;
438;SDS011;206;48.782;9.252;2022-08-19T04:25:49;22.40;;;21.00;;
438;SDS011;206;48.782;9.252;2022-08-19T04:28:14;21.70;;;20.60;;
438;SDS011;206;48.782;9.252;2022-08-19T04:30:45;21.70;;;20.60;;
438;SDS011;206;48.782;9.252;2022-08-19T04:33:14;22.90;;;21.80;;
438;SDS011;206;48.782;9.252;2022-08-19T04:35:42;22.80;;;21.70;;
438;SDS011;206;48.782;9.252;2022-08-19T04:38:11;21.70;;;19.93;;
438;SDS011;206;48.782;9.252;2022-08-19T04:40:54;23.27;;;22.07;;
438;SDS011;206;48.782;9.252;2022-08-19T04:43:38;23.50;;;22.30;;
438;SDS011;206;48.782;9.252;2022-08-19T04:46:05;22.37;;;21.27;;
438;SDS011;206;48.782;9.252;2022-08-19T04:48:35;24.63;;;22.13;;
438;SDS011;206;48.782;9.252;2022-08-19T04:51:05;23.03;;;21.90;;
438;SDS011;206;48.782;9.252;2022-08-19T04:53:34;21.67;;;20.57;;
438;SDS011;206;48.782;9.252;2022-08-19T04:56:04;22.60;;;21.50;;
438;SDS011;206;48.782;9.252;2022-08-19T04:58:35;25.00;;;22.20;;
438;SDS011;206;48.782;9.252;2022-08-19T05:01:02;22.50;;;21.40;;
438;SDS011;206;48.782;9.252;2022-08-19T05:03:28;23.60;;;22.40;;
438;SDS011;206;48.782;9.252;2022-08-19T05:05:57;23.83;;;22.03;;
438;SDS011;206;48.782;9.252;2022-08-19T05:08:23;22.13;;;21.03;;
438;SDS011;206;48.782;9.252;2022-08-19T05:10:50;24.03;;;22.83;;
438;SDS011;206;48.782;9.252;2022-08-19T05:13:17;23.80;;;22.60;;
438;SDS011;206;48.782;9.252;2022-08-19T05:15:44;24.07;;;21.90;;
438;SDS011;206;48.782;9.252;2022-08-19T05:18:18;21.40;;;20.30;;
438;SDS011;206;48.782;9.252;2022-08-19T05:21:05;22.57;;;21.47;;
438;SDS011;206;48.782;9.252;2022-08-19T05:23:51;22.67;;;21.57;;
438;SDS011;206;48.782;9.252;2022-08-19T05:26:17;23.53;;;21.50;;
438;SDS011;206;48.782;9.252;2022-08-19T05:28:43;29.37;;;23.20;;
438;SDS011;206;48.782;9.252;2022-08-19T05:31:09;24.93;;;21.57;;
438;SDS011;206;48.782;9.252;2022-08-19T05:33:35;22.73;;;21.63;;
438;SDS011;206;48.782;9.252;2022-08-19T05:36:01;25.10;;;20.40;;
438;SDS011;206;48.782;9.252;2022-08-19T05:38:27;26.80;;;23.63;;
438;SDS011;206;48.782;9.252;2022-08-19T05:40:55;27.50;;;24.00;;
438;SDS011;206;48.782;9.252;2022-08-19T05:43:20;25.90;;;22.33;;
438;SDS011;206;48.782;9.252;2022-08-19T05:45:46;25.77;;;23.13;;
438;SDS011;206;48.782;9.252;2022-08-19T05:48:12;24.67;;;23.40;;
438;SDS011;206;48.782;9.252;2022-08-19T05:50:39;23.37;;;22.17;;
438;SDS011;206;48.782;9.252;2022-08-19T05:53:06;25.20;;;23.27;;
438;SDS011;206;48.782;9.252;2022-08-19T05:55:34;21.43;;;20.30;;
438;SDS011;206;48.782;9.252;2022-08-19T05:57:59;23.00;;;21.90;;
438;SDS011;206;48.782;9.252;2022-08-19T06:00:26;21.50;;;20.40;;
438;SDS011;206;48.782;9.252;2022-08-19T06:02:52;24.60;;;23.40;;
438;SDS011;206;48.782;9.252;2022-08-19T06:05:27;24.13;;;22.93;;
438;SDS011;206;48.782;9.252;2022-08-19T06:07:52;24.80;;;20.80;;
438;SDS011;206;48.782;9.252;2022-08-19T06:10:19;28.50;;;24.67;;
438;SDS011;206;48.782;9.252;2022-08-19T06:12:46;23.17;;;22.00;;
438;SDS011;206;48.782;9.252;2022-08-19T06:15:13;26.97;;;23.87;;
438;SDS011;206;48.782;9.252;2022-08-19T06:17:39;23.17;;;21.97;;
438;SDS011;206;48.782;9.252;2022-08-19T06:20:07;25.80;;;24.50;;
438;SDS011;206;48.782;9.252;2022-08-19T06:22:42;27.10;;;23.90;;
438;SDS011;206;48.782;9.252;2022-08-19T06:25:14;25.57;;;24.27;;
438;SDS011;206;48.782;9.252;2022-08-19T06:27:41;25.50;;;24.20;;
438;SDS011;206;48.782;9.252;2022-08-19T06:30:07;26.93;;;25.63;;
438;SDS011;206;48.782;9.252;2022-08-19T06:32:33;25.77;;;24.47;;
438;SDS011;206;48.782;9.252;2022-08-19T06:34:59;28.70;;;25.77;;
438;SDS011;206;48.782;9.252;2022-08-19T06:37:25;24.10;;;22.90;;
438;SDS011;206;48.782;9.252;2022-08-19T06:39:51;26.60;;;24.80;;
438;SDS011;206;48.782;9.252;2022-08-19T06:42:16;26.40;;;24.90;;
438;SDS011;206;48.782;9.252;2022-08-19T06:44:44;24.47;;;23.23;;
438;SDS011;206;48.782;9.252;2022-08-19T06:47:12;26.47;;;25.17;;
438;SDS011;206;48.782;9.252;2022-08-19T06:49:39;26.30;;;24.87;;
438;SDS011;206;48.782;9.252;2022-08-19T06:52:05;28.70;;;25.30;;
438;SDS011;206;48.782;9.252;2022-08-19T06:54:31;24.77;;;23.07;;
438;SDS011;206;48.782;9.252;2022-08-19T06:57:00;25.03;;;23.83;;
438;SDS011;206;48.782;9.252;2022-08-19T06:59:27;32.73;;;23.13;;
438;SDS011;206;48.782;9.252;2022-08-19T07:01:57;27.63;;;26.23;;
438;SDS011;206;48.782;9.252;2022-08-19T07:04:27;28.60;;;25.67;;
438;SDS011;206;48.782;9.252;2022-08-19T07:07:01;24.20;;;23.00;;
438;SDS011;206;48.782;9.252;2022-08-19T07:09:32;23.57;;;22.37;;
438;SDS011;206;48.782;9.252;2022-08-19T07:11:58;27.70;;;24.80;;
438;SDS011;206;48.782;9.252;2022-08-19T07:14:25;32.70;;;26.33;;
438;SDS011;206;48.782;9.252;2022-08-19T07:16:53;26.03;;;24.73;;
438;SDS011;206;48.782;9.252;2022-08-19T07:19:20;26.60;;;25.30;;
438;SDS011;206;48.782;9.252;2022-08-19T07:21:47;24.63;;;23.43;;
438;SDS011;206;48.782;9.252;2022-08-19T07:24:14;25.77;;;23.10;;
438;SDS011;206;48.782;9.252;2022-08-19T07:26:42;23.50;;;22.33;;
438;SDS011;206;48.782;9.252;2022-08-19T07:29:09;24.20;;;21.90;;
438;SDS011;206;48.782;9.252;2022-08-19T07:31:35;27.53;;;22.63;;
438;SDS011;206;48.782;9.252;2022-08-19T07:34:05;26.87;;;25.40;;
438;SDS011;206;48.782;9.252;2022-08-19T07:36:34;24.90;;;23.70;;
438;SDS011;206;48.782;9.252;2022-08-19T07:39:03;32.20;;;23.37;;
438;SDS011;206;48.782;9.252;2022-08-19T07:41:32;24.27;;;22.90;;
438;SDS011;206;48.782;9.252;2022-08-19T07:44:00;23.97;;;22.77;;
438;SDS011;206;48.782;9.252;2022-08-19T07:46:29;22.63;;;21.23;;
438;SDS011;206;48.782;9.252;2022-08-19T07:48:59;23.70;;;20.77;;
438;SDS011;206;48.782;9.252;2022-08-19T07:51:25;22.47;;;21.37;;
438;SDS011;206;48.782;9.252;2022-08-19T07:53:51;26.70;;;23.73;;
438;SDS011;206;48.782;9.252;2022-08-19T07:56:18;27.80;;;22.90;;
438;SDS011;206;48.782;9.252;2022-08-19T07:58:46;23.47;;;22.27;;
438;SDS011;206;48.782;9.252;2022-08-19T08:01:15;28.00;;;21.93;;
438;SDS011;206;48.782;9.252;2022-08-19T08:03:47;23.67;;;22.47;;
438;SDS011;206;48.782;9.252;2022-08-19T08:06:33;24.47;;;21.20;;
438;SDS011;206;48.782;9.252;2022-08-19T08:09:18;22.30;;;21.20;;
438;SDS011;206;48.782;9.252;2022-08-19T08:11:49;21.63;;;20.57;;
438;SDS011;206;48.782;9.252;2022-08-19T08:14:25;23.90;;;22.67;;
438;SDS011;206;48.782;9.252;2022-08-19T08:16:56;23.33;;;19.93;;
438;SDS011;206;48.782;9.252;2022-08-19T08:19:22;21.83;;;20.73;;
438;SDS011;206;48.782;9.252;2022-08-19T08:21:49;25.60;;;24.30;;
438;SDS011;206;48.782;9.252;2022-08-19T08:24:16;25.83;;;22.50;;
438;SDS011;206;48.782;9.252;2022-08-19T08:26:43;21.60;;;20.50;;
438;SDS011;206;48.782;9.252;2022-08-19T08:29:12;23.63;;;22.43;;
438;SDS011;206;48.782;9.252;2022-08-19T08:31:42;23.97;;;22.30;;
438;SDS011;206;48.782;9.252;2022-08-19T08:34:09;24.40;;;22.90;;
438;SDS011;206;48.782;9.252;2022-08-19T08:36:37;22.00;;;20.90;;
438;SDS011;206;48.782;9.252;2022-08-19T08:39:06;25.70;;;22.10;;
438;SDS011;206;48.782;9.252;2022-08-19T08:47:02;24.90;;;21.00;;
438;SDS011;206;48.782;9.252;2022-08-19T08:52:45;22.80;;;21.67;;
438;SDS011;206;48.782;9.252;2022-08-19T08:55:15;22.53;;;21.43;;
438;SDS011;206;48.782;9.252;2022-08-19T09:00:26;23.23;;;21.00;;
438;SDS011;206;48.782;9.252;2022-08-19T09:02:55;24.30;;;23.10;;
438;SDS011;206;48.782;9.252;2022-08-19T09:05:22;22.47;;;21.37;;
438;SDS011;206;48.782;9.252;2022-08-19T09:15:40;20.10;;;19.10;;
438;SDS011;206;48.782;9.252;2022-08-19T09:18:10;22.80;;;21.70;;
438;SDS011;206;48.782;9.252;2022-08-19T09:20:36;23.83;;;22.63;;
438;SDS011;206;48.782;9.252;2022-08-19T09:23:02;24.53;;;20.67;;
438;SDS011;206;48.782;9.252;2022-08-19T09:25:28;22.67;;;21.57;;
438;SDS011;206;48.782;9.252;2022-08-19T09:27:55;20.70;;;19.70;;
438;SDS011;206;48.782;9.252;2022-08-19T09:30:25;20.50;;;19.00;;
438;SDS011;206;48.782;9.252;2022-08-19T09:32:52;22.47;;;21.37;;
438;SDS011;206;48.782;9.252;2022-08-19T09:35:19;20.47;;;19.47;;
438;SDS011;206;48.782;9.252;2022-08-19T09:37:47;25.03;;;22.27;;
438;SDS011;206;48.782;9.252;2022-08-19T09:40:14;22.67;;;21.57;;
438;SDS011;206;48.782;9.252;2022-08-19T09:42:40;31.03;;;19.93;;
438;SDS011;206;48.782;9.252;2022-08-19T09:45:08;21.10;;;20.03;;
438;SDS011;206;48.782;9.252;2022-08-19T09:47:35;20.90;;;19.90;;
438;SDS011;206;48.782;9.252;2022-08-19T09:50:06;25.00;;;22.80;;
438;SDS011;206;48.782;9.252;2022-08-19T09:52:37;21.37;;;20.27;;
438;SDS011;206;48.782;9.252;2022-08-19T09:55:07;25.70;;;21.83;;
438;SDS011;206;48.782;9.252;2022-08-19T09:57:34;21.93;;;20.83;;
438;SDS011;206;48.782;9.252;2022-08-19T10:00:00;21.67;;;20.57;;
438;SDS011;206;48.782;9.252;2022-08-19T10:02:26;20.93;;;19.90;;
438;SDS011;206;48.782;9.252;2022-08-19T10:04:51;22.73;;;21.63;;
438;SDS011;206;48.782;9.252;2022-08-19T10:07:36;25.03;;;23.83;;
438;SDS011;206;48.782;9.252;2022-08-19T10:10:03;23.77;;;21.80;;
438;SDS011;206;48.782;9.252;2022-08-19T10:12:31;23.33;;;22.13;;
438;SDS011;206;48.782;9.252;2022-08-19T10:14:58;23.33;;;22.17;;
438;SDS011;206;48.782;9.252;2022-08-19T10:17:24;21.37;;;20.27;;
438;SDS011;206;48.782;9.252;2022-08-19T10:19:50;25.10;;;21.93;;
438;SDS011;206;48.782;9.252;2022-08-19T10:22:17;24.80;;;21.00;;
438;SDS011;206;48.782;9.252;2022-08-19T10:24:45;22.83;;;21.17;;
438;SDS011;206;48.782;9.252;2022-08-19T10:27:11;25.40;;;22.50;;
438;SDS011;206;48.782;9.252;2022-08-19T10:29:38;25.73;;;22.70;;
438;SDS011;206;48.782;9.252;2022-08-19T10:32:08;23.27;;;22.07;;
438;SDS011;206;48.782;9.252;2022-08-19T10:34:36;21.90;;;20.80;;
438;SDS011;206;48.782;9.252;2022-08-19T10:37:03;23.13;;;21.90;;
438;SDS011;206;48.782;9.252;2022-08-19T10:39:34;23.13;;;21.97;;
438;SDS011;206;48.782;9.252;2022-08-19T10:42:04;25.27;;;23.00;;
438;SDS011;206;48.782;9.252;2022-08-19T10:44:31;24.90;;;23.70;;
438;SDS011;206;48.782;9.252;2022-08-19T10:46:57;25.97;;;24.67;;
438;SDS011;206;48.782;9.252;2022-08-19T10:49:23;22.40;;;21.30;;
438;SDS011;206;48.782;9.252;2022-08-19T10:51:49;27.43;;;24.00;;
438;SDS011;206;48.782;9.252;2022-08-19T10:54:33;25.53;;;24.23;;
438;SDS011;206;48.782;9.252;2022-08-19T10:57:17;23.77;;;22.43;;
438;SDS011;206;48.782;9.252;2022-08-19T10:59:43;24.73;;;23.53;;
438;SDS011;206;48.782;9.252;2022-08-19T11:02:10;23.70;;;22.50;;
438;SDS011;206;48.782;9.252;2022-08-19T11:04:37;25.60;;;24.00;;
438;SDS011;206;48.782;9.252;2022-08-19T11:07:04;23.73;;;22.53;;
438;SDS011;206;48.782;9.252;2022-08-19T11:09:30;27.03;;;25.00;;
438;SDS011;206;48.782;9.252;2022-08-19T11:12:00;29.70;;;26.07;;
438;SDS011;206;48.782;9.252;2022-08-19T11:14:26;21.87;;;20.77;;
438;SDS011;206;48.782;9.252;2022-08-19T11:16:53;28.23;;;23.67;;
438;SDS011;206;48.782;9.252;2022-08-19T11:19:20;24.83;;;23.63;;
438;SDS011;206;48.782;9.252;2022-08-19T11:21:48;24.30;;;23.10;;
438;SDS011;206;48.782;9.252;2022-08-19T11:24:19;23.90;;;22.70;;
438;SDS011;206;48.782;9.252;2022-08-19T11:26:47;26.20;;;24.30;;
438;SDS011;206;48.782;9.252;2022-08-19T11:29:15;22.30;;;21.20;;
438;SDS011;206;48.782;9.252;2022-08-19T11:31:43;25.93;;;22.60;;
438;SDS011;206;48.782;9.252;2022-08-19T11:34:12;25.97;;;24.67;;
438;SDS011;206;48.782;9.252;2022-08-19T11:36:41;29.30;;;27.70;;
438;SDS011;206;48.782;9.252;2022-08-19T11:39:10;29.17;;;27.63;;
438;SDS011;206;48.782;9.252;2022-08-19T11:41:37;31.47;;;28.77;;
438;SDS011;206;48.782;9.252;2022-08-19T11:44:02;27.87;;;26.47;;
438;SDS011;206;48.782;9.252;2022-08-19T11:46:29;25.40;;;24.10;;
438;SDS011;206;48.782;9.252;2022-08-19T11:48:56;30.27;;;28.70;;
438;SDS011;206;48.782;9.252;2022-08-19T11:51:24;29.70;;;28.20;;
438;SDS011;206;48.782;9.252;2022-08-19T11:53:52;30.50;;;26.90;;
438;SDS011;206;48.782;9.252;2022-08-19T11:56:19;28.80;;;26.47;;
438;SDS011;206;48.782;9.252;2022-08-19T11:58:45;25.77;;;24.47;;
438;SDS011;206;48.782;9.252;2022-08-19T12:01:11;25.00;;;23.80;;
438;SDS011;206;48.782;9.252;2022-08-19T12:03:41;26.07;;;24.77;;
438;SDS011;206;48.782;9.252;2022-08-19T12:06:09;25.00;;;23.80;;
438;SDS011;206;48.782;9.252;2022-08-19T12:08:40;26.70;;;25.40;;
438;SDS011;206;48.782;9.252;2022-08-19T12:11:07;25.70;;;24.40;;
438;SDS011;206;48.782;9.252;2022-08-19T12:13:33;27.10;;;24.93;;
438;SDS011;206;48.782;9.252;2022-08-19T12:16:00;27.60;;;26.20;;
438;SDS011;206;48.782;9.252;2022-08-19T12:18:26;26.80;;;25.50;;
438;SDS011;206;48.782;9.252;2022-08-19T12:20:53;25.60;;;24.30;;
438;SDS011;206;48.782;9.252;2022-08-19T12:23:21;24.63;;;23.43;;
438;SDS011;206;48.782;9.252;2022-08-19T12:25:48;26.80;;;25.13;;
438;SDS011;206;48.782;9.252;2022-08-19T12:28:21;26.27;;;24.77;;
438;SDS011;206;48.782;9.252;2022-08-19T12:30:48;25.80;;;24.03;;
438;SDS011;206;48.782;9.252;2022-08-19T12:33:16;28.00;;;26.03;;
438;SDS011;206;48.782;9.252;2022-08-19T12:35:48;30.00;;;26.20;;
438;SDS011;206;48.782;9.252;2022-08-19T12:38:14;26.90;;;25.03;;
438;SDS011;206;48.782;9.252;2022-08-19T12:40:39;27.87;;;26.47;;
438;SDS011;206;48.782;9.252;2022-08-19T12:43:06;26.47;;;25.17;;
438;SDS011;206;48.782;9.252;2022-08-19T12:45:32;26.00;;;24.70;;
438;SDS011;206;48.782;9.252;2022-08-19T12:47:58;25.30;;;24.00;;
438;SDS011;206;48.782;9.252;2022-08-19T12:50:24;24.77;;;23.57;;
438;SDS011;206;48.782;9.252;2022-08-19T12:52:50;26.03;;;24.73;;
438;SDS011;206;48.782;9.252;2022-08-19T12:55:16;26.20;;;23.77;;
438;SDS011;206;48.782;9.252;2022-08-19T12:57:43;26.67;;;25.37;;
438;SDS011;206;48.782;9.252;2022-08-19T13:00:12;26.47;;;24.70;;
438;SDS011;206;48.782;9.252;2022-08-19T13:02:40;25.77;;;24.47;;
438;SDS011;206;48.782;9.252;2022-08-19T13:05:09;24.63;;;23.30;;
438;SDS011;206;48.782;9.252;2022-08-19T13:07:37;28.83;;;25.63;;
438;SDS011;206;48.782;9.252;2022-08-19T13:10:04;28.07;;;26.67;;
438;SDS011;206;48.782;9.252;2022-08-19T13:12:31;27.03;;;25.73;;
438;SDS011;206;48.782;9.252;2022-08-19T13:14:57;27.30;;;25.93;;
438;SDS011;206;48.782;9.252;2022-08-19T13:17:23;26.13;;;24.83;;
438;SDS011;206;48.782;9.252;2022-08-19T13:19:48;28.83;;;26.30;;
438;SDS011;206;48.782;9.252;2022-08-19T13:22:15;26.97;;;25.70;;
438;SDS011;206;48.782;9.252;2022-08-19T13:24:40;27.43;;;26.03;;
438;SDS011;206;48.782;9.252;2022-08-19T13:27:06;25.87;;;24.57;;
438;SDS011;206;48.782;9.252;2022-08-19T13:29:32;27.03;;;25.70;;
438;SDS011;206;48.782;9.252;2022-08-19T13:32:16;26.90;;;25.60;;
438;SDS011;206;48.782;9.252;2022-08-19T13:35:00;27.17;;;25.87;;
438;SDS011;206;48.782;9.252;2022-08-19T13:37:26;24.87;;;23.67;;
438;SDS011;206;48.782;9.252;2022-08-19T13:40:17;26.80;;;25.50;;
438;SDS011;206;48.782;9.252;2022-08-19T13:42:45;26.20;;;24.90;;
438;SDS011;206;48.782;9.252;2022-08-19T13:45:14;28.67;;;27.27;;
438;SDS011;206;48.782;9.252;2022-08-19T13:47:45;27.77;;;26.37;;
438;SDS011;206;48.782;9.252;2022-08-19T13:50:13;28.80;;;27.40;;
438;SDS011;206;48.782;9.252;2022-08-19T13:52:40;28.73;;;25.27;;
438;SDS011;206;48.782;9.252;2022-08-19T13:55:07;28.67;;;27.27;;
438;SDS011;206;48.782;9.252;2022-08-19T13:57:34;26.60;;;25.30;;
438;SDS011;206;48.782;9.252;2022-08-19T14:00:01;30.53;;;25.83;;
438;SDS011;206;48.782;9.252;2022-08-19T14:02:28;29.00;;;27.60;;
438;SDS011;206;48.782;9.252;2022-08-19T14:04:53;29.20;;;26.83;;
438;SDS011;206;48.782;9.252;2022-08-19T14:07:19;29.97;;;28.47;;
438;SDS011;206;48.782;9.252;2022-08-19T14:09:45;26.27;;;24.97;;
438;SDS011;206;48.782;9.252;2022-08-19T14:12:10;28.87;;;27.50;;
438;SDS011;206;48.782;9.252;2022-08-19T14:14:36;30.10;;;28.60;;
438;SDS011;206;48.782;9.252;2022-08-19T14:17:06;31.23;;;27.83;;
438;SDS011;206;48.782;9.252;2022-08-19T14:19:32;28.67;;;27.27;;
438;SDS011;206;48.782;9.252;2022-08-19T14:21:58;29.23;;;27.80;;
438;SDS011;206;48.782;9.252;2022-08-19T14:24:24;30.50;;;29.00;;
438;SDS011;206;48.782;9.252;2022-08-19T14:26:49;30.83;;;28.80;;
438;SDS011;206;48.782;9.252;2022-08-19T14:29:15;31.10;;;29.60;;
438;SDS011;206;48.782;9.252;2022-08-19T14:31:41;29.63;;;28.17;;
438;SDS011;206;48.782;9.252;2022-08-19T14:34:09;28.30;;;26.90;;
438;SDS011;206;48.782;9.252;2022-08-19T14:36:35;33.83;;;32.13;;
438;SDS011;206;48.782;9.252;2022-08-19T14:39:02;30.17;;;28.70;;
438;SDS011;206;48.782;9.252;2022-08-19T14:41:29;29.27;;;27.83;;
438;SDS011;206;48.782;9.252;2022-08-19T14:43:55;27.07;;;25.77;;
438;SDS011;206;48.782;9.252;2022-08-19T14:46:23;29.20;;;27.77;;
438;SDS011;206;48.782;9.252;2022-08-19T14:48:51;30.90;;;29.40;;
438;SDS011;206;48.782;9.252;2022-08-19T14:51:17;30.13;;;28.27;;
438;SDS011;206;48.782;9.252;2022-08-19T14:53:45;28.37;;;26.97;;
438;SDS011;206;48.782;9.252;2022-08-19T14:56:14;31.33;;;27.80;;
438;SDS011;206;48.782;9.252;2022-08-19T14:58:42;28.57;;;27.17;;
438;SDS011;206;48.782;9.252;2022-08-19T15:01:08;28.13;;;26.73;;
438;SDS011;206;48.782;9.252;2022-08-19T15:03:34;27.90;;;26.50;;
438;SDS011;206;48.782;9.252;2022-08-19T15:06:02;27.13;;;25.80;;
438;SDS011;206;48.782;9.252;2022-08-19T15:08:29;27.73;;;26.33;;
438;SDS011;206;48.782;9.252;2022-08-19T15:10:57;26.53;;;25.23;;
438;SDS011;206;48.782;9.252;2022-08-19T15:13:23;25.47;;;24.17;;
438;SDS011;206;48.782;9.252;2022-08-19T15:15:51;26.50;;;25.20;;
438;SDS011;206;48.782;9.252;2022-08-19T15:18:18;27.20;;;25.60;;
438;SDS011;206;48.782;9.252;2022-08-19T15:20:45;24.47;;;21.87;;
438;SDS011;206;48.782;9.252;2022-08-19T15:23:12;24.20;;;22.50;;
438;SDS011;206;48.782;9.252;2022-08-19T15:25:39;24.33;;;23.03;;
438;SDS011;206;48.782;9.252;2022-08-19T15:28:06;23.50;;;22.30;;
438;SDS011;206;48.782;9.252;2022-08-19T15:30:32;21.93;;;20.83;;
438;SDS011;206;48.782;9.252;2022-08-19T15:32:58;22.50;;;21.40;;
438;SDS011;206;48.782;9.252;2022-08-19T15:35:24;23.13;;;21.83;;
438;SDS011;206;48.782;9.252;2022-08-19T15:37:51;22.67;;;21.57;;
438;SDS011;206;48.782;9.252;2022-08-19T15:40:19;23.83;;;22.63;;
438;SDS011;206;48.782;9.252;2022-08-19T15:42:45;22.20;;;21.10;;
438;SDS011;206;48.782;9.252;2022-08-19T15:45:12;24.70;;;23.50;;